Date,TemperatureHighF,TemperatureAvgF,TemperatureLowF,DewpointHighF,DewpointAvgF,DewpointLowF,HumidityHigh,HumidityAvg,HumidityLow,PressureMaxIn,PressureMinIn,WindSpeedMaxMPH,WindSpeedAvgMPH,GustSpeedMaxMPH,PrecipitationSumIn
2013-3-1,36,31,27,28,25,19,91,78,66,29.51,29.34,8,3,23,0.04
2013-3-2,30,26,22,21,19,18,88,77,64,29.51,29.43,8,4,19,0.00
2013-3-3,29,24,20,19,16,14,87,72,57,29.49,29.41,11,5,23,0.00
2013-3-4,31,24,20,19,16,12,86,70,55,29.64,29.48,12,5,24,0.00
2013-3-5,42,30,23,24,21,18,83,69,48,29.69,29.56,9,3,16,0.00
2013-3-6,39,34,30,28,25,23,81,72,62,29.68,29.47,15,6,29,0.01
2013-3-7,38,32,27,24,21,18,71,64,50,29.80,29.67,14,6,24,0.00
2013-3-8,38,30,24,25,21,18,91,69,55,29.95,29.75,14,7,31,0.00
2013-3-9,54,39,26,23,19,14,73,47,22,30.00,29.92,11,3,17,0.00
2013-3-10,56,45,38,27,18,11,54,34,22,29.98,29.87,10,4,22,0.00
2013-3-11,53,43,34,45,35,23,93,73,43,29.90,29.62,14,5,27,0.00
2013-3-12,50,44,34,48,38,27,93,79,58,29.63,29.46,14,5,31,0.90
2013-3-13,42,33,26,29,23,13,86,67,36,29.62,29.51,11,4,25,0.00
2013-3-14,35,27,22,17,11,5,79,53,34,29.67,29.58,13,6,30,0.00
2013-3-15,42,32,20,28,20,10,74,61,50,29.67,29.43,11,4,22,0.00
2013-3-16,36,29,26,28,23,17,93,79,60,29.58,29.40,8,2,14,0.00
2013-3-17,31,27,24,24,18,14,94,71,56,29.92,29.58,7,2,15,0.00
2013-3-18,27,22,18,16,11,10,72,63,50,29.95,29.83,10,3,17,0.00
2013-3-19,47,34,26,35,25,12,95,72,31,29.56,29.38,11,3,28,0.17
2013-3-20,38,30,24,20,16,13,85,56,38,29.56,29.45,8,4,17,0.00
2013-3-21,30,24,19,18,11,6,74,58,41,29.49,29.35,9,3,16,0.00
2013-3-22,32,26,20,20,17,13,88,68,53,29.59,29.41,9,4,21,0.00
2013-3-23,40,31,24,20,17,15,75,57,39,29.64,29.56,12,5,25,0.00
2013-3-24,42,33,26,20,17,14,67,52,34,29.63,29.34,8,3,18,0.00
2013-3-25,34,31,28,30,26,19,94,82,55,29.35,29.20,8,2,16,0.14
2013-3-26,46,35,28,33,27,22,92,74,43,29.60,29.33,11,2,22,0.05
2013-3-27,44,35,30,29,25,21,90,68,43,29.72,29.59,11,3,17,0.01
2013-3-28,41,35,30,30,26,22,89,70,49,29.85,29.67,9,4,20,0.00
2013-3-29,46,39,33,30,26,22,76,60,44,29.86,29.78,9,3,16,0.00
2013-3-30,55,42,32,26,19,8,67,42,17,29.87,29.77,8,2,12,0.00
2013-3-31,46,42,38,41,30,13,94,66,32,29.79,29.42,11,3,24,0.12